Time;durP1;ratioP1;P1;durP2;ratioP2;P2;SDS_P1;SDS_P2;PMS_P1;PMS_P2;Temp;Humidity;BMP_temperature;BMP_pressure;BME280_temperature;BME280_humidity;BME280_pressure;Samples;Min_cycle;Max_cycle;Signal;HPM_P1;HPM_P2
2023/04/25 00:01:35;;;;;;;0.10;0.10;;;9.60;99.90;;;;;;5064042;28;20255;-82
2023/04/25 00:04:02;;;;;;;0.10;0.10;;;9.50;99.90;;;;;;5056604;28;20246;-81
2023/04/25 00:06:28;;;;;;;0.10;0.10;;;9.60;99.90;;;;;;5059578;28;20211;-83
2023/04/25 00:08:53;;;;;;;0.00;0.00;;;9.60;99.90;;;;;;5063925;28;20193;-83
2023/04/25 00:11:19;;;;;;;0.10;0.10;;;9.70;99.90;;;;;;5064646;28;20169;-82
2023/04/25 00:13:46;;;;;;;0.10;0.10;;;9.70;99.90;;;;;;5060864;28;20189;-82
2023/04/25 00:16:13;;;;;;;0.10;0.10;;;9.70;99.90;;;;;;5063540;28;20285;-82
2023/04/25 00:18:39;;;;;;;0.10;0.10;;;9.60;99.90;;;;;;5057497;28;20560;-83
2023/04/25 00:21:06;;;;;;;0.00;0.00;;;9.60;99.90;;;;;;5061350;28;20638;-82
2023/04/25 00:23:31;;;;;;;0.10;0.10;;;9.60;99.90;;;;;;5060418;28;20221;-81
2023/04/25 00:25:57;;;;;;;0.10;0.10;;;9.60;99.90;;;;;;5060049;28;20654;-81
2023/04/25 00:28:22;;;;;;;0.00;0.00;;;9.60;99.90;;;;;;5062852;28;20189;-83
2023/04/25 00:30:48;;;;;;;0.10;0.10;;;9.60;99.90;;;;;;5055729;28;20200;-83
2023/04/25 00:33:13;;;;;;;0.10;0.10;;;9.60;99.90;;;;;;5060462;28;20610;-82
2023/04/25 00:35:39;;;;;;;0.10;0.10;;;9.60;99.90;;;;;;5066244;28;20194;-83
2023/04/25 00:38:04;;;;;;;0.10;0.10;;;9.60;99.90;;;;;;5067513;28;20217;-82
2023/04/25 00:40:30;;;;;;;0.10;0.10;;;9.70;99.90;;;;;;5065501;28;20565;-83
2023/04/25 00:42:55;;;;;;;0.10;0.10;;;9.70;99.90;;;;;;5061685;28;20560;-82
2023/04/25 00:45:21;;;;;;;0.10;0.10;;;9.70;99.90;;;;;;5062742;28;20181;-82
2023/04/25 00:47:50;;;;;;;0.10;0.10;;;9.70;99.90;;;;;;5060248;28;20212;-82
2023/04/25 00:50:15;;;;;;;0.10;0.10;;;9.70;99.90;;;;;;5066152;28;20661;-82
2023/04/25 00:52:43;;;;;;;0.10;0.10;;;9.70;99.90;;;;;;5060577;28;20185;-83
2023/04/25 00:55:10;;;;;;;0.10;0.10;;;9.70;99.90;;;;;;5064820;28;20279;-83
2023/04/25 00:57:36;;;;;;;0.07;0.07;;;9.80;99.90;;;;;;5066170;28;20678;-82
2023/04/25 01:00:05;;;;;;;0.10;0.10;;;9.90;99.90;;;;;;5065038;28;20298;-82
2023/04/25 01:02:31;;;;;;;0.10;0.10;;;9.90;99.90;;;;;;5066934;28;20208;-83
2023/04/25 01:04:57;;;;;;;0.00;0.00;;;9.90;99.90;;;;;;5065289;28;20201;-82
2023/04/25 01:07:23;;;;;;;0.10;0.10;;;9.90;99.90;;;;;;5061885;28;21256;-82
2023/04/25 01:09:49;;;;;;;0.10;0.10;;;9.90;99.90;;;;;;5059549;28;20188;-83
2023/04/25 01:12:14;;;;;;;0.10;0.10;;;9.90;99.90;;;;;;5063917;28;20180;-82
2023/04/25 01:14:40;;;;;;;0.00;0.00;;;9.80;99.90;;;;;;5062724;28;20896;-82
2023/04/25 01:17:07;;;;;;;0.10;0.10;;;9.90;99.90;;;;;;5063506;28;20211;-82
2023/04/25 01:19:32;;;;;;;0.10;0.10;;;9.90;99.90;;;;;;5064990;28;20233;-83
2023/04/25 01:21:58;;;;;;;0.10;0.10;;;9.90;99.90;;;;;;5063809;28;21214;-81
2023/04/25 01:24:24;;;;;;;0.10;0.10;;;9.90;99.90;;;;;;5066133;28;20261;-82
2023/04/25 01:26:50;;;;;;;0.10;0.10;;;9.90;99.90;;;;;;5061875;28;20991;-81
2023/04/25 01:29:20;;;;;;;0.10;0.10;;;9.90;99.90;;;;;;5061417;28;20184;-82
2023/04/25 01:31:46;;;;;;;0.10;0.10;;;10.00;99.90;;;;;;5065714;28;20560;-82
2023/04/25 01:34:12;;;;;;;0.10;0.10;;;10.00;99.90;;;;;;5064607;28;20197;-83
2023/04/25 01:36:38;;;;;;;0.10;0.10;;;10.10;99.90;;;;;;5060117;28;20212;-83
2023/04/25 01:39:03;;;;;;;0.10;0.10;;;9.90;99.90;;;;;;5062709;28;20212;-81
2023/04/25 01:41:29;;;;;;;0.10;0.10;;;9.90;99.90;;;;;;5061516;28;20556;-82
2023/04/25 01:43:55;;;;;;;0.10;0.10;;;9.90;99.90;;;;;;5060747;28;20309;-82
2023/04/25 01:46:21;;;;;;;0.10;0.10;;;10.00;99.90;;;;;;5064274;28;20204;-82
2023/04/25 01:48:47;;;;;;;0.10;0.10;;;10.00;99.90;;;;;;5063546;28;20597;-83
2023/04/25 01:51:12;;;;;;;0.10;0.10;;;10.00;99.90;;;;;;5066210;28;20177;-83
2023/04/25 01:53:39;;;;;;;0.10;0.10;;;10.00;99.90;;;;;;5059114;28;20254;-83
2023/04/25 01:56:05;;;;;;;0.10;0.10;;;10.00;99.90;;;;;;5059756;28;20186;-82
2023/04/25 01:58:30;;;;;;;0.03;0.03;;;10.00;99.90;;;;;;5059456;28;20188;-82
2023/04/25 02:00:56;;;;;;;0.10;0.10;;;9.90;99.90;;;;;;5060960;28;20185;-83
2023/04/25 02:03:21;;;;;;;0.10;0.10;;;9.90;99.90;;;;;;5062279;28;20275;-82
2023/04/25 02:05:47;;;;;;;0.10;0.10;;;9.70;99.90;;;;;;5061984;28;20207;-83
2023/04/25 02:08:13;;;;;;;0.10;0.10;;;9.70;99.90;;;;;;5062827;28;20346;-82
2023/04/25 02:10:38;;;;;;;0.10;0.10;;;9.60;99.90;;;;;;5062567;28;20215;-81
2023/04/25 02:13:05;;;;;;;0.07;0.07;;;9.60;99.90;;;;;;5063341;28;20188;-82
2023/04/25 02:15:30;;;;;;;0.10;0.10;;;9.60;99.90;;;;;;5063779;28;20654;-82
2023/04/25 02:17:56;;;;;;;0.10;0.10;;;9.60;99.90;;;;;;5067517;28;20262;-82
2023/04/25 02:20:23;;;;;;;0.10;0.10;;;9.70;99.90;;;;;;5064997;28;20172;-82
2023/04/25 02:22:48;;;;;;;0.10;0.10;;;9.60;99.90;;;;;;5066123;28;20249;-83
2023/04/25 02:25:15;;;;;;;0.10;0.10;;;9.70;99.90;;;;;;5064281;28;20212;-82
2023/04/25 02:27:41;;;;;;;0.00;0.00;;;9.60;99.90;;;;;;5067977;28;20220;-81
2023/04/25 02:30:07;;;;;;;0.10;0.10;;;9.60;99.90;;;;;;5067689;28;20180;-82
2023/04/25 02:32:34;;;;;;;0.10;0.10;;;9.50;99.90;;;;;;5068167;28;20192;-82
2023/04/25 02:35:03;;;;;;;0.10;0.10;;;9.50;99.90;;;;;;5067539;28;20199;-83
2023/04/25 02:37:29;;;;;;;0.10;0.10;;;9.50;99.90;;;;;;5070014;28;20236;-83
2023/04/25 02:39:55;;;;;;;0.10;0.10;;;9.50;99.90;;;;;;5070135;28;20874;-82
2023/04/25 02:42:20;;;;;;;0.10;0.10;;;9.50;99.90;;;;;;5067351;28;20187;-81
2023/04/25 02:44:46;;;;;;;0.10;0.10;;;9.50;99.90;;;;;;5069820;28;20208;-82
2023/04/25 02:47:11;;;;;;;0.10;0.10;;;9.50;99.90;;;;;;5070320;28;20196;-83
2023/04/25 02:49:37;;;;;;;0.10;0.10;;;9.60;99.90;;;;;;5064797;28;20181;-83
2023/04/25 02:52:02;;;;;;;0.10;0.10;;;9.60;99.90;;;;;;5062436;28;20382;-82
2023/04/25 02:54:28;;;;;;;0.10;0.10;;;9.50;99.90;;;;;;5063929;28;20196;-82
2023/04/25 02:56:53;;;;;;;0.10;0.10;;;9.50;99.90;;;;;;5067218;28;20346;-83
2023/04/25 02:59:19;;;;;;;0.10;0.10;;;9.50;99.90;;;;;;5063624;28;20189;-82
2023/04/25 03:01:45;;;;;;;0.10;0.10;;;9.40;99.90;;;;;;5068107;28;20196;-83
2023/04/25 03:04:10;;;;;;;0.10;0.10;;;9.40;99.90;;;;;;5063459;28;20280;-82
2023/04/25 03:06:36;;;;;;;0.10;0.10;;;9.30;99.90;;;;;;5068788;28;20226;-81
2023/04/25 03:09:01;;;;;;;0.10;0.10;;;9.20;99.90;;;;;;5067706;28;20605;-81
2023/04/25 03:11:27;;;;;;;0.10;0.10;;;9.20;99.90;;;;;;5084748;28;20204;-82
2023/04/25 03:13:52;;;;;;;0.03;0.03;;;9.20;99.90;;;;;;5067173;28;20200;-82
2023/04/25 03:16:18;;;;;;;0.10;0.10;;;9.30;99.90;;;;;;5068953;28;20220;-82
2023/04/25 03:18:43;;;;;;;0.10;0.10;;;9.20;99.90;;;;;;5068993;28;20781;-83
2023/04/25 03:21:09;;;;;;;0.10;0.10;;;8.90;99.90;;;;;;5067983;28;20199;-82
2023/04/25 03:23:34;;;;;;;0.10;0.10;;;8.80;99.90;;;;;;5064764;28;20312;-82
2023/04/25 03:26:00;;;;;;;0.10;0.10;;;8.80;99.90;;;;;;5065508;28;20231;-82
2023/04/25 03:28:25;;;;;;;0.10;0.10;;;8.70;99.90;;;;;;5064401;28;20238;-82
2023/04/25 03:30:51;;;;;;;0.10;0.10;;;8.50;99.90;;;;;;5063134;28;20673;-82
2023/04/25 03:33:16;;;;;;;0.10;0.10;;;8.30;99.90;;;;;;5067256;28;20192;-83
2023/04/25 03:35:42;;;;;;;0.10;0.10;;;8.20;99.90;;;;;;5065555;28;20199;-83
2023/04/25 03:38:08;;;;;;;0.10;0.10;;;8.10;99.90;;;;;;5063037;28;20205;-82
2023/04/25 03:40:34;;;;;;;0.10;0.10;;;8.00;99.90;;;;;;5061178;28;20188;-83
2023/04/25 03:42:59;;;;;;;0.10;0.10;;;8.10;99.90;;;;;;5061600;28;20209;-81
2023/04/25 03:45:25;;;;;;;0.10;0.10;;;8.10;99.90;;;;;;5065158;28;20565;-82
2023/04/25 03:47:50;;;;;;;0.10;0.10;;;8.20;99.90;;;;;;5062949;28;20219;-82
2023/04/25 03:50:16;;;;;;;0.10;0.10;;;8.20;99.90;;;;;;5062031;28;20181;-82
2023/04/25 03:52:43;;;;;;;0.10;0.10;;;8.20;99.90;;;;;;5064999;28;20198;-83
2023/04/25 03:55:08;;;;;;;0.10;0.10;;;8.20;99.90;;;;;;5063849;28;20222;-81
2023/04/25 03:57:34;;;;;;;0.10;0.10;;;8.20;99.90;;;;;;5065584;28;20224;-80
2023/04/25 04:00:00;;;;;;;0.10;0.10;;;8.30;99.90;;;;;;5063799;28;20194;-82
2023/04/25 04:02:25;;;;;;;0.10;0.10;;;8.30;99.90;;;;;;5066468;28;20199;-81
2023/04/25 04:04:51;;;;;;;0.10;0.10;;;8.20;99.90;;;;;;5064877;28;20246;-82
2023/04/25 04:07:16;;;;;;;0.10;0.10;;;8.20;99.90;;;;;;5057919;28;20204;-82
2023/04/25 04:09:45;;;;;;;0.10;0.10;;;8.30;99.90;;;;;;5066164;28;20194;-82
2023/04/25 04:12:10;;;;;;;0.10;0.10;;;8.30;99.90;;;;;;5086021;28;20844;-83
2023/04/25 04:14:36;;;;;;;0.10;0.10;;;8.30;99.90;;;;;;5064469;28;20184;-82
2023/04/25 04:17:02;;;;;;;0.10;0.10;;;8.20;99.90;;;;;;5062771;28;20212;-82
2023/04/25 04:19:27;;;;;;;0.10;0.10;;;8.20;99.90;;;;;;5065002;28;20183;-81
2023/04/25 04:21:53;;;;;;;0.00;0.00;;;8.20;99.90;;;;;;5067244;28;20284;-82
2023/04/25 04:24:18;;;;;;;0.10;0.10;;;8.20;99.90;;;;;;5069240;28;20214;-81
2023/04/25 04:26:46;;;;;;;0.10;0.10;;;8.00;99.90;;;;;;5067322;28;20204;-82
2023/04/25 04:29:20;;;;;;;0.10;0.10;;;8.10;99.90;;;;;;5063146;28;20585;-82
2023/04/25 04:31:47;;;;;;;0.10;0.10;;;8.00;99.90;;;;;;5064813;28;20210;-82
2023/04/25 04:34:12;;;;;;;0.10;0.10;;;8.00;99.90;;;;;;5067903;28;20241;-82
2023/04/25 04:36:39;;;;;;;0.10;0.10;;;7.80;99.90;;;;;;5061263;28;20215;-82
2023/04/25 04:39:06;;;;;;;0.10;0.10;;;7.80;99.90;;;;;;5068379;28;20181;-82
2023/04/25 04:41:32;;;;;;;0.10;0.10;;;7.90;99.90;;;;;;5067779;28;20200;-81
2023/04/25 04:43:57;;;;;;;0.10;0.10;;;7.80;99.90;;;;;;5065169;28;20212;-82
2023/04/25 04:46:24;;;;;;;0.10;0.10;;;7.70;99.90;;;;;;5069120;28;20212;-82
2023/04/25 04:48:50;;;;;;;0.00;0.00;;;7.70;99.90;;;;;;5066221;28;20188;-82
2023/04/25 04:51:15;;;;;;;0.10;0.10;;;7.50;99.90;;;;;;5066271;28;20670;-82
2023/04/25 04:53:41;;;;;;;0.03;0.03;;;7.30;99.90;;;;;;5069644;28;20196;-83
2023/04/25 04:56:06;;;;;;;0.03;0.03;;;7.30;99.90;;;;;;5070770;28;20184;-82
2023/04/25 04:58:32;;;;;;;0.10;0.10;;;7.30;99.90;;;;;;5063251;28;20188;-82
2023/04/25 05:00:58;;;;;;;0.10;0.10;;;7.10;99.90;;;;;;5065490;28;20198;-83
2023/04/25 05:03:24;;;;;;;0.10;0.10;;;7.00;99.90;;;;;;5065106;28;20661;-80
2023/04/25 05:05:49;;;;;;;0.10;0.10;;;7.00;99.90;;;;;;5066853;28;20194;-80
2023/04/25 05:08:15;;;;;;;0.10;0.10;;;6.90;99.90;;;;;;5067729;28;20571;-82
2023/04/25 05:10:41;;;;;;;0.10;0.10;;;6.90;99.90;;;;;;5069850;28;20187;-81
2023/04/25 05:13:06;;;;;;;0.10;0.10;;;6.90;99.90;;;;;;5061400;28;20188;-82
2023/04/25 05:15:32;;;;;;;0.10;0.10;;;6.90;99.90;;;;;;5069338;28;20254;-81
2023/04/25 05:17:58;;;;;;;0.10;0.10;;;7.20;99.90;;;;;;5068683;28;20216;-81
2023/04/25 05:20:23;;;;;;;0.10;0.10;;;7.20;99.90;;;;;;5065549;28;20188;-82
2023/04/25 05:22:49;;;;;;;0.03;0.03;;;7.30;99.90;;;;;;5071225;28;20216;-81
2023/04/25 05:25:14;;;;;;;0.10;0.10;;;7.30;99.90;;;;;;5068947;28;20203;-81
2023/04/25 05:27:40;;;;;;;0.10;0.10;;;7.60;99.90;;;;;;5067664;28;20206;-81
2023/04/25 05:30:06;;;;;;;0.10;0.10;;;7.70;99.90;;;;;;5068275;28;20230;-81
2023/04/25 05:32:32;;;;;;;0.10;0.10;;;7.60;99.90;;;;;;5070906;28;20679;-81
2023/04/25 05:34:57;;;;;;;0.10;0.10;;;7.60;99.90;;;;;;5071549;28;20200;-82
2023/04/25 05:37:23;;;;;;;0.10;0.10;;;7.70;99.90;;;;;;5065597;28;20215;-81
2023/04/25 05:39:48;;;;;;;0.10;0.10;;;7.90;99.90;;;;;;5073731;28;20191;-82
2023/04/25 05:42:14;;;;;;;0.10;0.10;;;7.40;99.90;;;;;;5072149;28;20758;-81
2023/04/25 05:44:39;;;;;;;0.10;0.10;;;7.60;99.90;;;;;;5067456;28;20208;-82
2023/04/25 05:47:05;;;;;;;0.10;0.10;;;7.70;99.90;;;;;;5066829;28;20236;-82
2023/04/25 05:49:31;;;;;;;0.10;0.10;;;8.10;99.90;;;;;;5072852;28;20179;-82
2023/04/25 05:51:56;;;;;;;0.10;0.10;;;8.20;99.90;;;;;;5063600;28;20224;-82
2023/04/25 05:54:22;;;;;;;0.10;0.10;;;8.40;99.90;;;;;;5067817;28;20186;-81
2023/04/25 05:56:47;;;;;;;0.10;0.10;;;8.50;99.90;;;;;;5065299;28;20211;-82
2023/04/25 05:59:13;;;;;;;0.10;0.10;;;8.60;99.90;;;;;;5062360;28;20897;-81
2023/04/25 06:01:38;;;;;;;0.10;0.10;;;8.70;99.90;;;;;;5068114;28;20187;-81
2023/04/25 06:04:04;;;;;;;0.00;0.00;;;8.80;99.90;;;;;;5065174;28;20271;-83
2023/04/25 06:06:30;;;;;;;0.10;0.10;;;8.60;99.90;;;;;;5059126;28;20202;-82
2023/04/25 06:08:55;;;;;;;0.10;0.10;;;8.80;99.90;;;;;;5064095;28;20185;-84
2023/04/25 06:11:21;;;;;;;0.10;0.10;;;8.70;99.90;;;;;;5056642;28;20195;-83
2023/04/25 06:13:46;;;;;;;0.10;0.10;;;8.80;99.90;;;;;;5051588;28;20207;-84
2023/04/25 06:16:12;;;;;;;0.10;0.10;;;9.00;99.90;;;;;;5048819;28;20184;-82
2023/04/25 06:18:37;;;;;;;0.00;0.00;;;9.20;99.90;;;;;;5066017;28;20689;-82
2023/04/25 06:21:03;;;;;;;0.10;0.10;;;9.20;99.90;;;;;;5062624;28;21198;-82
2023/04/25 06:23:29;;;;;;;0.10;0.10;;;9.20;99.90;;;;;;5063777;28;20240;-83
2023/04/25 06:25:54;;;;;;;0.10;0.10;;;9.10;99.90;;;;;;5062511;28;20195;-84
2023/04/25 06:28:21;;;;;;;0.10;0.10;;;9.30;99.90;;;;;;5068851;28;20181;-83
2023/04/25 06:30:47;;;;;;;0.10;0.10;;;9.30;99.90;;;;;;5061165;28;20651;-83
2023/04/25 06:33:12;;;;;;;0.10;0.10;;;9.40;99.90;;;;;;5062302;28;20196;-83
2023/04/25 06:35:38;;;;;;;0.10;0.10;;;9.50;99.90;;;;;;5060618;28;20193;-83
2023/04/25 06:38:04;;;;;;;0.10;0.10;;;9.60;99.90;;;;;;5065618;28;20208;-82
2023/04/25 06:40:29;;;;;;;0.10;0.10;;;9.80;99.90;;;;;;5063396;28;21401;-84
2023/04/25 06:42:55;;;;;;;0.10;0.10;;;10.00;99.90;;;;;;5060720;28;20188;-84
2023/04/25 06:45:20;;;;;;;0.10;0.10;;;10.10;99.90;;;;;;5069364;28;20227;-82
2023/04/25 06:47:46;;;;;;;0.10;0.10;;;10.10;99.90;;;;;;5067298;28;20217;-83
2023/04/25 06:50:11;;;;;;;0.10;0.10;;;10.20;99.90;;;;;;5071524;28;20533;-84
2023/04/25 06:52:37;;;;;;;0.10;0.10;;;10.30;99.90;;;;;;5067104;28;20179;-83
2023/04/25 06:55:03;;;;;;;0.00;0.00;;;10.60;99.90;;;;;;5063242;28;20567;-83
2023/04/25 06:57:29;;;;;;;0.10;0.10;;;10.90;99.90;;;;;;5062208;28;20215;-83
2023/04/25 06:59:55;;;;;;;0.10;0.10;;;11.30;99.90;;;;;;5056975;28;20185;-84
2023/04/25 07:02:21;;;;;;;0.00;0.00;;;11.40;99.90;;;;;;5052401;28;20222;-83
2023/04/25 07:04:47;;;;;;;0.10;0.10;;;11.20;99.90;;;;;;5059420;28;20639;-83
2023/04/25 07:07:12;;;;;;;0.10;0.10;;;11.30;99.90;;;;;;5063620;28;20233;-83
2023/04/25 07:09:38;;;;;;;0.10;0.10;;;11.10;99.90;;;;;;5061628;28;20185;-83
2023/04/25 07:12:04;;;;;;;0.00;0.00;;;11.40;99.90;;;;;;5062284;28;20185;-83
2023/04/25 07:14:30;;;;;;;0.10;0.10;;;11.60;99.90;;;;;;5059499;28;20196;-83
2023/04/25 07:16:56;;;;;;;0.10;0.10;;;11.30;99.90;;;;;;5063067;28;20211;-83
2023/04/25 07:19:23;;;;;;;0.10;0.10;;;11.10;99.90;;;;;;5058971;28;20560;-82
2023/04/25 07:21:49;;;;;;;0.10;0.10;;;10.90;99.90;;;;;;5065108;28;20197;-83
2023/04/25 07:24:15;;;;;;;0.10;0.10;;;10.90;99.90;;;;;;5062433;28;20205;-83
2023/04/25 07:26:40;;;;;;;0.10;0.10;;;10.50;99.90;;;;;;5067752;28;20208;-83
2023/04/25 07:29:06;;;;;;;0.10;0.10;;;10.60;99.90;;;;;;5060693;28;20263;-82
2023/04/25 07:31:31;;;;;;;0.10;0.10;;;10.00;99.90;;;;;;5064479;28;20186;-84
2023/04/25 07:33:57;;;;;;;0.10;0.10;;;10.30;99.90;;;;;;5058970;28;20610;-83
2023/04/25 07:36:22;;;;;;;0.10;0.10;;;10.50;99.90;;;;;;5054174;28;20263;-83
2023/04/25 07:38:48;;;;;;;0.10;0.10;;;10.70;99.90;;;;;;5058687;28;20610;-83
2023/04/25 07:41:13;;;;;;;0.10;0.10;;;10.80;99.90;;;;;;5064016;28;20556;-88
2023/04/25 07:43:39;;;;;;;0.10;0.10;;;10.90;99.90;;;;;;5064514;28;20227;-84
2023/04/25 07:46:04;;;;;;;0.10;0.10;;;10.50;99.90;;;;;;5062764;28;20226;-83
2023/04/25 07:48:30;;;;;;;0.10;0.10;;;10.60;99.90;;;;;;5063252;28;20650;-84
2023/04/25 07:50:56;;;;;;;0.10;0.10;;;10.80;99.90;;;;;;5062863;28;21135;-83
2023/04/25 07:53:21;;;;;;;0.10;0.10;;;10.60;99.90;;;;;;5059970;28;20230;-84
2023/04/25 07:55:47;;;;;;;0.00;0.00;;;11.10;99.90;;;;;;5056513;28;20185;-82
2023/04/25 07:58:13;;;;;;;0.10;0.10;;;10.00;99.90;;;;;;5056254;28;20200;-83
2023/04/25 08:00:39;;;;;;;0.10;0.10;;;10.20;99.90;;;;;;5063215;28;20250;-83
2023/04/25 08:03:04;;;;;;;0.10;0.10;;;10.70;99.90;;;;;;5060163;28;20250;-82
2023/04/25 08:05:31;;;;;;;0.10;0.10;;;10.40;99.90;;;;;;5055047;28;20224;-82
2023/04/25 08:07:56;;;;;;;0.10;0.10;;;10.60;99.90;;;;;;5047344;28;20212;-83
2023/04/25 08:10:23;;;;;;;0.10;0.10;;;10.60;99.90;;;;;;5061131;28;20181;-84
2023/04/25 08:12:48;;;;;;;0.07;0.07;;;11.00;99.90;;;;;;5054424;28;20182;-83
2023/04/25 08:15:15;;;;;;;0.10;0.10;;;11.20;99.90;;;;;;5051446;28;20185;-83
2023/04/25 08:17:41;;;;;;;0.10;0.10;;;11.40;99.90;;;;;;5057364;28;20223;-83
2023/04/25 08:20:06;;;;;;;0.10;0.10;;;11.20;99.90;;;;;;5055431;28;20201;-83
2023/04/25 08:22:32;;;;;;;0.10;0.10;;;11.30;99.90;;;;;;5062558;28;20502;-83
2023/04/25 08:24:58;;;;;;;0.10;0.10;;;11.50;99.90;;;;;;5050895;28;20236;-82
2023/04/25 08:27:23;;;;;;;0.10;0.10;;;10.80;99.90;;;;;;5060906;28;20205;-83
2023/04/25 08:29:50;;;;;;;0.10;0.10;;;11.30;99.90;;;;;;5060616;28;20181;-83
2023/04/25 08:32:15;;;;;;;0.10;0.10;;;11.30;99.90;;;;;;5057852;28;20240;-82
2023/04/25 08:34:42;;;;;;;0.10;0.10;;;11.60;99.90;;;;;;5063291;28;20727;-83
2023/04/25 08:37:09;;;;;;;0.10;0.10;;;11.80;99.90;;;;;;5058919;28;20205;-83
2023/04/25 08:39:35;;;;;;;0.10;0.10;;;11.60;99.90;;;;;;5056757;28;20190;-83
2023/04/25 08:42:04;;;;;;;0.10;0.10;;;11.30;99.90;;;;;;5055764;28;20191;-83
2023/04/25 08:44:34;;;;;;;0.10;0.10;;;11.20;99.90;;;;;;5055321;28;20236;-83
2023/04/25 08:47:03;;;;;;;0.07;0.07;;;11.50;99.90;;;;;;5055025;28;20652;-83
2023/04/25 08:49:31;;;;;;;0.10;0.10;;;11.80;99.90;;;;;;5056221;28;20185;-83
2023/04/25 08:52:00;;;;;;;0.10;0.10;;;11.90;99.90;;;;;;5057399;28;20189;-84
2023/04/25 08:54:28;;;;;;;0.10;0.10;;;11.80;99.90;;;;;;5069415;28;20710;-83
2023/04/25 08:56:55;;;;;;;0.10;0.10;;;11.30;99.90;;;;;;5058024;28;20209;-84
2023/04/25 08:59:22;;;;;;;0.10;0.10;;;11.20;99.90;;;;;;5055904;28;20246;-84
2023/04/25 09:01:49;;;;;;;0.10;0.10;;;11.30;99.90;;;;;;5057840;28;20251;-82
2023/04/25 09:04:15;;;;;;;0.10;0.10;;;10.80;99.90;;;;;;5058208;28;20196;-83
2023/04/25 09:06:41;;;;;;;0.10;0.10;;;11.00;99.90;;;;;;5057795;28;20226;-83
2023/04/25 09:09:09;;;;;;;0.10;0.10;;;11.30;99.90;;;;;;5059123;28;20184;-83
2023/04/25 09:11:37;;;;;;;0.10;0.10;;;11.60;99.90;;;;;;5056403;28;20193;-83
2023/04/25 09:14:17;;;;;;;0.10;0.10;;;11.30;99.90;;;;;;5058143;28;20186;-83
2023/04/25 09:16:59;;;;;;;0.10;0.10;;;11.20;99.90;;;;;;5060159;28;21413;-83
2023/04/25 09:19:35;;;;;;;0.10;0.10;;;11.10;99.90;;;;;;5052549;28;20184;-83
2023/04/25 09:22:02;;;;;;;0.10;0.10;;;11.60;99.90;;;;;;5057040;28;20199;-83
2023/04/25 09:24:37;;;;;;;0.10;0.10;;;12.10;99.90;;;;;;5056172;28;20196;-83
2023/04/25 09:27:07;;;;;;;0.00;0.00;;;12.40;99.90;;;;;;5055196;28;20748;-83
2023/04/25 09:29:36;;;;;;;0.10;0.10;;;12.40;99.90;;;;;;5057404;28;20235;-83
2023/04/25 09:32:11;;;;;;;0.10;0.10;;;12.50;99.90;;;;;;5059509;28;20181;-83
2023/04/25 09:34:41;;;;;;;0.10;0.10;;;12.30;99.90;;;;;;5060144;28;20223;-82
2023/04/25 09:37:09;;;;;;;0.10;0.10;;;12.00;99.90;;;;;;5053906;28;20288;-83
2023/04/25 09:39:34;;;;;;;0.10;0.10;;;11.90;99.90;;;;;;5049318;28;20214;-81
2023/04/25 09:42:00;;;;;;;0.10;0.10;;;12.20;99.90;;;;;;5052194;28;20193;-83
2023/04/25 09:44:26;;;;;;;0.10;0.10;;;12.30;99.90;;;;;;5055145;28;20264;-83
2023/04/25 09:46:53;;;;;;;0.10;0.10;;;11.50;99.90;;;;;;5052723;28;20205;-83
2023/04/25 09:49:20;;;;;;;0.00;0.00;;;12.00;99.90;;;;;;5058304;28;20189;-83
2023/04/25 09:52:00;;;;;;;0.10;0.10;;;12.20;99.90;;;;;;5055535;28;20254;-83
2023/04/25 09:54:26;;;;;;;0.10;0.10;;;11.90;99.90;;;;;;5062189;28;20215;-82
2023/04/25 09:56:53;;;;;;;0.10;0.10;;;11.90;99.90;;;;;;5061992;28;20208;-83
2023/04/25 09:59:25;;;;;;;0.10;0.10;;;12.00;99.90;;;;;;5062299;28;20263;-83
2023/04/25 10:01:54;;;;;;;0.10;0.10;;;11.70;99.90;;;;;;5065115;28;20189;-83
2023/04/25 10:04:27;;;;;;;0.10;0.10;;;11.80;99.90;;;;;;5062077;28;20563;-83
2023/04/25 10:06:55;;;;;;;0.10;0.10;;;12.20;99.90;;;;;;5062669;28;20209;-83
2023/04/25 10:09:24;;;;;;;0.10;0.10;;;12.40;99.90;;;;;;5061324;28;20255;-84
2023/04/25 10:11:50;;;;;;;0.10;0.10;;;12.60;99.90;;;;;;5062950;28;20203;-83
2023/04/25 10:14:16;;;;;;;0.10;0.10;;;12.30;99.90;;;;;;5060599;28;20186;-83
2023/04/25 10:16:42;;;;;;;0.10;0.10;;;11.70;99.90;;;;;;5061157;28;20216;-83
2023/04/25 10:19:09;;;;;;;0.10;0.10;;;12.20;99.90;;;;;;5057551;28;20194;-85
2023/04/25 10:21:44;;;;;;;0.10;0.10;;;12.20;99.90;;;;;;5058304;28;20194;-85
2023/04/25 10:24:10;;;;;;;0.10;0.10;;;11.80;99.90;;;;;;5055127;28;20273;-84
2023/04/25 10:26:35;;;;;;;0.10;0.10;;;12.00;99.90;;;;;;5060240;28;20292;-85
2023/04/25 10:29:03;;;;;;;0.10;0.10;;;12.00;99.90;;;;;;5053867;28;20291;-84
2023/04/25 10:31:30;;;;;;;0.10;0.10;;;12.10;99.90;;;;;;5058069;28;20184;-83
2023/04/25 10:33:56;;;;;;;0.10;0.10;;;11.80;99.90;;;;;;5053775;28;20349;-83
2023/04/25 10:36:23;;;;;;;0.00;0.00;;;11.90;99.90;;;;;;5058181;28;20209;-82
2023/04/25 10:38:51;;;;;;;0.10;0.10;;;11.80;99.90;;;;;;5062300;28;20189;-83
2023/04/25 10:41:21;;;;;;;0.10;0.10;;;11.90;99.90;;;;;;5066308;28;20232;-82
2023/04/25 10:43:48;;;;;;;0.10;0.10;;;11.70;99.90;;;;;;5064448;28;20272;-83
2023/04/25 10:46:30;;;;;;;0.10;0.10;;;11.80;99.90;;;;;;5065128;28;20221;-83
2023/04/25 10:49:01;;;;;;;0.10;0.10;;;11.60;99.90;;;;;;5063274;28;20200;-82
2023/04/25 10:51:31;;;;;;;0.10;0.10;;;11.80;99.90;;;;;;5066763;28;20189;-82
2023/04/25 10:54:03;;;;;;;0.10;0.10;;;12.10;99.90;;;;;;5065997;28;20181;-82
2023/04/25 10:56:40;;;;;;;0.10;0.10;;;11.80;99.90;;;;;;5067565;28;20916;-83
2023/04/25 10:59:10;;;;;;;0.10;0.10;;;11.90;99.90;;;;;;5065601;28;20190;-82
2023/04/25 11:01:46;;;;;;;0.10;0.10;;;11.90;99.90;;;;;;5064479;28;20327;-82
2023/04/25 11:04:23;;;;;;;0.10;0.10;;;11.90;99.90;;;;;;5065465;28;20205;-82
2023/04/25 11:07:06;;;;;;;0.10;0.10;;;12.40;99.90;;;;;;5069006;28;20197;-83
2023/04/25 11:09:33;;;;;;;0.10;0.10;;;12.40;99.90;;;;;;5063126;28;20208;-83
2023/04/25 11:12:00;;;;;;;0.10;0.10;;;12.50;99.90;;;;;;5057303;28;20927;-83
2023/04/25 11:14:26;;;;;;;0.10;0.10;;;12.20;99.90;;;;;;5055111;28;20189;-83
2023/04/25 11:16:57;;;;;;;0.10;0.10;;;11.90;99.90;;;;;;5058724;28;20209;-83
2023/04/25 11:19:24;;;;;;;0.10;0.10;;;12.00;99.90;;;;;;5054841;28;20193;-83
2023/04/25 11:21:49;;;;;;;0.10;0.10;;;12.10;99.90;;;;;;5060237;28;20727;-82
2023/04/25 11:24:16;;;;;;;0.10;0.10;;;12.10;99.90;;;;;;5054646;28;20211;-84
2023/04/25 11:26:43;;;;;;;0.10;0.10;;;12.40;99.90;;;;;;5055237;28;20201;-83
2023/04/25 11:29:08;;;;;;;0.10;0.10;;;12.40;99.90;;;;;;5049213;28;20220;-84
2023/04/25 11:31:34;;;;;;;0.10;0.10;;;12.10;99.90;;;;;;5055933;28;20213;-84
2023/04/25 11:34:00;;;;;;;0.10;0.10;;;12.10;99.90;;;;;;5055245;28;20195;-84
2023/04/25 11:36:27;;;;;;;0.50;0.50;;;11.50;99.90;;;;;;5053388;28;20243;-84
2023/04/25 11:38:53;;;;;;;0.10;0.10;;;11.30;99.90;;;;;;5058689;28;20599;-84
2023/04/25 11:41:22;;;;;;;0.10;0.10;;;11.70;99.90;;;;;;5056965;28;20192;-84
2023/04/25 11:43:49;;;;;;;0.10;0.10;;;12.10;99.90;;;;;;5057607;28;20200;-84
2023/04/25 11:46:15;;;;;;;0.10;0.10;;;12.30;99.90;;;;;;5058425;28;20189;-83
2023/04/25 11:48:42;;;;;;;0.10;0.10;;;12.20;99.90;;;;;;5057328;28;20185;-84
2023/04/25 11:51:08;;;;;;;0.00;0.00;;;11.70;99.90;;;;;;5056930;28;20289;-84
2023/04/25 11:53:36;;;;;;;0.10;0.10;;;11.70;99.90;;;;;;5056909;28;20181;-84
2023/04/25 11:56:01;;;;;;;0.10;0.10;;;11.40;99.90;;;;;;5056116;28;20296;-84
2023/04/25 11:58:27;;;;;;;0.10;0.10;;;11.20;99.90;;;;;;5057763;28;20308;-83
2023/04/25 12:00:53;;;;;;;0.10;0.10;;;11.90;99.90;;;;;;5056009;28;23521;-84
2023/04/25 12:03:19;;;;;;;0.10;0.10;;;12.10;99.90;;;;;;5052917;28;20239;-84
2023/04/25 12:05:45;;;;;;;0.10;0.10;;;12.10;99.90;;;;;;5055503;28;20181;-83
2023/04/25 12:08:17;;;;;;;0.10;0.10;;;12.00;99.90;;;;;;5049343;28;20338;-84
2023/04/25 12:10:45;;;;;;;0.10;0.10;;;12.40;99.90;;;;;;5051657;28;20195;-83
2023/04/25 12:13:22;;;;;;;0.10;0.10;;;11.90;99.90;;;;;;5056368;28;20177;-84
2023/04/25 12:15:47;;;;;;;0.10;0.10;;;12.10;99.90;;;;;;5059608;28;20185;-82
2023/04/25 12:18:13;;;;;;;0.10;0.10;;;12.40;99.90;;;;;;5058071;28;21046;-83
2023/04/25 12:20:38;;;;;;;0.10;0.10;;;12.20;99.90;;;;;;5060149;28;20647;-83
2023/04/25 12:23:07;;;;;;;0.40;0.40;;;12.80;99.90;;;;;;5053328;28;20546;-82
2023/04/25 12:25:44;;;;;;;0.10;0.10;;;13.60;99.90;;;;;;5059135;28;20471;-82
2023/04/25 12:28:24;;;;;;;0.10;0.10;;;13.70;99.90;;;;;;5063105;28;20343;-83
2023/04/25 12:30:56;;;;;;;0.03;0.03;;;13.90;99.90;;;;;;5066381;28;20183;-83
2023/04/25 12:33:22;;;;;;;0.10;0.10;;;13.30;99.90;;;;;;5064771;28;20202;-82
2023/04/25 12:35:48;;;;;;;0.10;0.10;;;13.10;99.90;;;;;;5062063;28;20185;-83
2023/04/25 12:38:30;;;;;;;0.10;0.10;;;12.10;99.90;;;;;;5063428;28;20261;-82
2023/04/25 12:40:57;;;;;;;0.10;0.10;;;11.70;99.90;;;;;;5061768;28;20182;-82
2023/04/25 12:43:22;;;;;;;0.10;0.10;;;12.10;99.90;;;;;;5063803;28;20714;-82
2023/04/25 12:45:51;;;;;;;0.10;0.10;;;11.80;99.90;;;;;;5058994;28;20299;-83
2023/04/25 12:48:17;;;;;;;0.10;0.10;;;11.30;99.90;;;;;;5066844;28;20201;-83
2023/04/25 12:50:43;;;;;;;0.10;0.10;;;11.50;99.90;;;;;;5061810;28;20181;-83